Time;durP1;ratioP1;P1;durP2;ratioP2;P2;SDS_P1;SDS_P2;PMS_P1;PMS_P2;Temp;Humidity;BMP_temperature;BMP_pressure;BME280_temperature;BME280_humidity;BME280_pressure;Samples;Min_cycle;Max_cycle;Signal;HPM_P1;HPM_P2
2021/09/06 00:00:14;;;;;;;6.40;3.10;;;;;;;13.70;59.30;101793.32;5225944;56;21190;-87
2021/09/06 00:05:22;;;;;;;4.40;2.87;;;;;;;13.64;59.32;101790.23;5225599;56;21215;-87
2021/09/06 00:10:44;;;;;;;4.43;2.70;;;;;;;13.60;59.31;101786.93;5227605;56;21199;-87
2021/09/06 00:15:50;;;;;;;4.30;2.70;;;;;;;13.59;59.51;101791.91;5225666;56;21185;-87
2021/09/06 00:20:57;;;;;;;5.63;2.87;;;;;;;13.57;59.67;101790.30;5224335;56;22061;-87
2021/09/06 00:26:04;;;;;;;5.17;2.60;;;;;;;13.49;59.61;101792.63;5227001;56;21447;-87
2021/09/06 00:31:12;;;;;;;5.83;2.87;;;;;;;13.39;59.90;101788.44;5225545;56;21109;-86
2021/09/06 00:36:18;;;;;;;6.30;2.70;;;;;;;13.33;60.10;101789.70;5227654;56;21222;-86
2021/09/06 00:41:24;;;;;;;5.93;3.40;;;;;;;13.32;60.22;101791.13;5224478;56;21649;-87
2021/09/06 00:46:30;;;;;;;5.83;3.40;;;;;;;13.32;60.43;101788.48;5226774;56;21410;-87
2021/09/06 00:51:37;;;;;;;4.77;2.80;;;;;;;13.29;60.60;101790.05;5229952;56;21186;-86
2021/09/06 00:56:44;;;;;;;6.97;3.07;;;;;;;13.20;60.73;101788.00;5225876;56;21417;-87
2021/09/06 01:01:52;;;;;;;4.50;2.70;;;;;;;13.09;60.97;101779.89;5228052;56;22119;-86
2021/09/06 01:06:58;;;;;;;8.03;2.93;;;;;;;12.98;61.43;101784.61;5226029;56;21143;-87
2021/09/06 01:12:22;;;;;;;6.17;2.37;;;;;;;12.87;61.75;101779.99;5201903;56;21566;-87
2021/09/06 01:17:30;;;;;;;8.90;2.60;;;;;;;12.82;61.67;101774.64;5202190;56;21143;-87
2021/09/06 01:22:36;;;;;;;3.60;2.47;;;;;;;12.78;62.11;101777.97;5202301;56;21205;-87
2021/09/06 01:27:49;;;;;;;5.17;2.67;;;;;;;12.73;62.04;101784.05;5199583;56;21242;-86
2021/09/06 01:32:57;;;;;;;6.10;2.17;;;;;;;12.68;62.18;101783.49;5200011;56;21547;-88
2021/09/06 01:38:04;;;;;;;3.13;2.40;;;;;;;12.65;62.39;101786.37;5202856;56;21231;-88
2021/09/06 01:43:11;;;;;;;6.53;2.60;;;;;;;12.58;62.36;101784.59;5202886;56;21191;-85
2021/09/06 01:48:19;;;;;;;3.60;2.40;;;;;;;12.56;62.42;101789.14;5202446;56;21581;-86
2021/09/06 01:53:25;;;;;;;6.83;2.17;;;;;;;12.54;62.43;101780.42;5202897;56;21567;-87
2021/09/06 01:58:34;;;;;;;4.17;2.60;;;;;;;12.52;62.49;101778.85;5203806;56;21218;-87
2021/09/06 02:03:40;;;;;;;2.87;2.47;;;;;;;12.47;62.65;101771.66;5199223;56;21160;-87
2021/09/06 02:08:48;;;;;;;4.97;2.80;;;;;;;12.40;62.68;101770.34;5202627;56;21188;-86
2021/09/06 02:13:56;;;;;;;2.70;2.30;;;;;;;12.34;62.83;101767.63;5202279;56;21210;-87
2021/09/06 02:19:04;;;;;;;3.07;2.17;;;;;;;12.30;62.98;101770.95;5200608;56;21082;-87
2021/09/06 02:24:10;;;;;;;5.87;2.33;;;;;;;12.30;63.00;101776.26;5201796;56;21139;-87
2021/09/06 02:29:17;;;;;;;4.37;2.70;;;;;;;12.30;63.04;101772.28;5200054;56;21572;-87
2021/09/06 02:34:24;;;;;;;3.07;1.97;;;;;;;12.25;63.19;101770.39;5202123;56;21841;-87
2021/09/06 02:39:31;;;;;;;7.30;2.20;;;;;;;12.19;63.23;101762.00;5202972;56;21574;-86
2021/09/06 02:44:37;;;;;;;4.00;2.67;;;;;;;12.18;63.35;101770.90;5199510;56;21211;-86
2021/09/06 02:49:44;;;;;;;4.60;2.57;;;;;;;12.15;63.40;101769.77;5200422;56;21152;-88
2021/09/06 02:54:52;;;;;;;2.60;2.27;;;;;;;12.10;63.50;101774.03;5198137;56;21192;-87
2021/09/06 02:59:59;;;;;;;5.30;2.67;;;;;;;12.06;63.61;101775.67;5200576;56;21209;-86
2021/09/06 03:05:11;;;;;;;7.00;3.13;;;;;;;12.04;63.69;101777.56;5199475;56;21155;-87
2021/09/06 03:10:14;;;;;;;6.77;2.63;;;;;;;12.03;63.77;101774.06;5199022;55;21239;-87
2021/09/06 03:15:20;;;;;;;6.33;2.33;;;;;;;12.03;63.81;101771.88;5200511;56;21471;-87
2021/09/06 03:20:28;;;;;;;3.27;2.30;;;;;;;11.97;63.94;101764.69;5200674;56;21184;-87
2021/09/06 03:25:34;;;;;;;5.83;2.27;;;;;;;11.91;63.88;101765.09;5202081;56;21164;-86
2021/09/06 03:30:40;;;;;;;5.33;2.13;;;;;;;11.89;64.06;101766.98;5198431;56;21145;-86
2021/09/06 03:35:47;;;;;;;3.50;2.37;;;;;;;11.87;64.16;101762.72;5201533;56;21133;-86
2021/09/06 03:40:53;;;;;;;12.10;2.90;;;;;;;11.83;64.28;101760.73;5200528;56;21204;-86
2021/09/06 03:45:59;;;;;;;9.83;2.90;;;;;;;11.82;64.40;101761.67;5203029;56;21205;-87
2021/09/06 03:51:07;;;;;;;10.73;2.90;;;;;;;11.81;64.45;101763.95;5198777;56;21139;-86
2021/09/06 03:56:13;;;;;;;19.77;5.03;;;;;;;11.73;64.49;101765.36;5202581;56;21617;-86
2021/09/06 04:01:20;;;;;;;19.23;3.20;;;;;;;11.59;64.51;101762.25;5205758;56;21196;-87
2021/09/06 04:06:26;;;;;;;10.70;2.43;;;;;;;11.43;64.75;101770.76;5203675;56;21234;-86
2021/09/06 04:11:32;;;;;;;15.93;3.20;;;;;;;11.39;65.08;101771.88;5202728;56;21113;-86
2021/09/06 04:16:38;;;;;;;9.57;2.40;;;;;;;11.40;65.45;101767.82;5196922;56;21532;-87
2021/09/06 04:21:44;;;;;;;19.40;2.83;;;;;;;11.47;65.74;101766.95;5195775;56;21121;-86
2021/09/06 04:26:51;;;;;;;13.47;2.27;;;;;;;11.44;65.74;101765.37;5198735;56;21772;-87
2021/09/06 04:31:58;;;;;;;21.90;2.70;;;;;;;11.48;65.96;101760.70;5201447;56;21180;-87
2021/09/06 04:37:06;;;;;;;27.33;4.83;;;;;;;11.48;65.90;101765.53;5205767;56;21149;-88
2021/09/06 04:42:13;;;;;;;13.70;2.93;;;;;;;11.41;65.84;101772.64;5207245;56;22199;-87
2021/09/06 04:47:20;;;;;;;12.77;3.37;;;;;;;11.35;65.93;101777.83;5203566;56;21180;-89
2021/09/06 04:52:28;;;;;;;18.70;3.50;;;;;;;11.31;66.38;101774.12;5206804;56;21088;-89
2021/09/06 04:57:34;;;;;;;7.27;3.07;;;;;;;11.31;66.62;101768.83;5202683;56;21164;-84
2021/09/06 05:02:40;;;;;;;6.50;2.70;;;;;;;11.34;66.76;101767.33;5205293;56;21206;-83
2021/09/06 05:07:47;;;;;;;10.27;2.93;;;;;;;11.37;66.92;101776.41;5202988;56;21180;-84
2021/09/06 05:12:53;;;;;;;13.40;2.63;;;;;;;11.45;66.95;101781.64;5203154;56;21089;-84
2021/09/06 05:17:59;;;;;;;4.03;2.57;;;;;;;11.52;67.20;101772.83;5202178;56;21353;-83
2021/09/06 05:23:07;;;;;;;5.37;2.67;;;;;;;11.55;67.13;101782.77;5199599;56;21202;-83
2021/09/06 05:28:14;;;;;;;10.37;2.87;;;;;;;11.58;67.32;101776.44;5202260;56;21168;-83
2021/09/06 05:33:20;;;;;;;9.27;3.23;;;;;;;11.59;67.56;101779.00;5202063;56;21270;-84
2021/09/06 05:38:28;;;;;;;6.03;3.10;;;;;;;11.63;67.57;101784.46;5201163;56;21506;-83
2021/09/06 05:43:48;;;;;;;5.67;2.23;;;;;;;11.72;67.90;101774.25;4970575;58;21217;-83
2021/09/06 05:48:56;;;;;;;7.30;3.20;;;;;;;11.83;67.92;101777.11;4970389;58;21637;-83
2021/09/06 05:54:02;;;;;;;9.93;2.90;;;;;;;11.97;67.98;101787.70;4969867;58;21163;-83
2021/09/06 05:59:08;;;;;;;5.43;2.53;;;;;;;12.12;67.91;101785.39;4970087;58;21194;-84
2021/09/06 06:04:15;;;;;;;9.07;3.07;;;;;;;12.39;67.82;101775.27;4971044;58;21871;-84
2021/09/06 06:09:23;;;;;;;3.40;2.57;;;;;;;12.57;67.52;101772.27;4970783;58;21225;-84
2021/09/06 06:14:28;;;;;;;8.37;3.80;;;;;;;12.75;67.35;101775.52;4970667;58;21199;-84
2021/09/06 06:19:35;;;;;;;9.27;5.17;;;;;;;12.91;67.19;101766.89;5122143;56;21645;-84
2021/09/06 06:24:46;;;;;;;6.67;3.30;;;;;;;13.09;67.03;101769.27;5171325;56;21201;-84
2021/09/06 06:29:53;;;;;;;6.07;2.87;;;;;;;13.23;67.04;101782.00;5193182;56;21211;-84
2021/09/06 06:35:00;;;;;;;7.40;2.50;;;;;;;13.43;67.36;101790.41;5198868;56;22151;-84
2021/09/06 06:40:06;;;;;;;4.57;3.07;;;;;;;13.62;66.81;101785.49;5202629;56;21120;-84
2021/09/06 06:45:15;;;;;;;9.07;3.20;;;;;;;13.81;66.91;101788.56;5199037;56;21140;-84
2021/09/06 06:50:24;;;;;;;7.77;3.30;;;;;;;14.05;67.08;101792.12;5201170;56;21183;-83
2021/09/06 06:55:31;;;;;;;5.50;3.07;;;;;;;14.29;66.12;101796.16;5197086;55;22528;-85
2021/09/06 07:00:39;;;;;;;4.97;2.83;;;;;;;14.50;66.12;101797.78;5196505;56;21160;-84
2021/09/06 07:05:45;;;;;;;4.07;2.83;;;;;;;14.71;65.62;101793.98;5203454;56;21510;-84
2021/09/06 07:10:51;;;;;;;6.20;2.53;;;;;;;14.96;65.04;101789.02;5201068;56;22184;-82
2021/09/06 07:15:57;;;;;;;5.07;2.10;;;;;;;15.18;65.18;101793.05;5198936;56;21163;-84
2021/09/06 07:21:04;;;;;;;8.33;2.80;;;;;;;15.40;63.24;101795.78;5203508;56;21144;-85
2021/09/06 07:26:10;;;;;;;6.50;2.83;;;;;;;15.56;63.09;101797.28;5204284;56;21216;-85
2021/09/06 07:31:17;;;;;;;6.33;3.17;;;;;;;15.78;63.87;101799.45;5203608;56;21129;-84
2021/09/06 07:36:23;;;;;;;5.70;2.53;;;;;;;16.05;63.26;101804.89;5202747;56;21653;-85
2021/09/06 07:41:30;;;;;;;6.37;2.90;;;;;;;16.25;62.60;101799.29;5198129;56;21144;-84
2021/09/06 07:46:38;;;;;;;5.00;2.93;;;;;;;16.46;62.18;101794.40;5201958;56;21144;-85
2021/09/06 07:51:51;;;;;;;4.30;2.67;;;;;;;16.60;61.06;101798.59;5201376;56;22185;-84
2021/09/06 07:56:54;;;;;;;18.53;9.13;;;;;;;16.71;60.47;101795.91;5200873;56;21542;-84
2021/09/06 08:02:02;;;;;;;4.67;2.90;;;;;;;16.83;60.90;101802.90;5204659;56;21617;-85
2021/09/06 08:07:09;;;;;;;4.77;2.83;;;;;;;17.00;61.06;101810.84;5200653;56;21738;-85
2021/09/06 08:12:15;;;;;;;6.70;2.70;;;;;;;17.27;60.08;101806.80;5203009;56;21175;-85
2021/09/06 08:17:21;;;;;;;5.10;2.50;;;;;;;17.47;58.66;101817.49;5202058;56;21578;-84
2021/09/06 08:22:27;;;;;;;6.63;3.37;;;;;;;17.62;59.62;101811.30;5202614;56;21706;-84
2021/09/06 08:27:33;;;;;;;3.03;2.20;;;;;;;17.82;58.28;101811.80;5200800;56;21192;-84
2021/09/06 08:32:43;;;;;;;5.40;2.97;;;;;;;18.00;58.08;101817.86;5201176;56;21211;-85
2021/09/06 08:37:51;;;;;;;8.63;1.70;;;;;;;18.18;57.57;101804.18;5203975;56;21649;-85
2021/09/06 08:43:00;;;;;;;2.47;2.10;;;;;;;18.46;56.50;101804.73;5201270;56;21188;-85
2021/09/06 08:48:07;;;;;;;8.83;2.20;;;;;;;18.64;56.85;101800.06;5198693;56;21237;-86
2021/09/06 08:53:13;;;;;;;4.13;2.60;;;;;;;18.77;53.29;101796.11;5201925;56;21228;-83
2021/09/06 08:58:20;;;;;;;6.60;2.23;;;;;;;18.86;52.72;101799.77;5202829;56;22127;-85
2021/09/06 09:03:26;;;;;;;4.30;2.10;;;;;;;18.91;53.27;101797.52;5200985;56;21215;-85
2021/09/06 09:08:34;;;;;;;6.20;2.10;;;;;;;18.99;52.89;101794.95;5172012;56;21546;-85
2021/09/06 09:13:41;;;;;;;2.70;1.93;;;;;;;19.15;52.45;101801.08;5203533;56;21153;-84
2021/09/06 09:18:59;;;;;;;4.63;2.33;;;;;;;19.32;52.61;101800.34;5225632;56;21176;-84
2021/09/06 09:24:07;;;;;;;2.40;1.70;;;;;;;19.43;50.42;101795.30;5226450;56;21195;-83
2021/09/06 09:29:30;;;;;;;10.20;2.83;;;;;;;19.52;50.10;101793.98;5222546;56;22089;-85
2021/09/06 09:34:47;;;;;;;7.05;2.20;;;;;;;19.61;48.96;101802.48;5227934;56;21222;-84
2021/09/06 09:40:01;;;;;;;2.80;1.92;;;;;;;19.66;49.36;101789.48;5227820;56;21179;-85
2021/09/06 09:45:11;;;;;;;2.60;2.40;;;;;;;19.75;49.53;101792.26;5232619;56;21625;-87
2021/09/06 09:50:19;;;;;;;3.55;2.77;;;;;;;19.92;49.51;101782.93;5227108;56;21665;-86
2021/09/06 09:55:32;;;;;;;5.25;2.55;;;;;;;20.01;49.37;101775.30;5230531;56;21626;-86
2021/09/06 10:00:39;;;;;;;7.50;2.40;;;;;;;20.12;49.99;101773.43;5228306;56;21731;-86
2021/09/06 10:05:49;;;;;;;2.33;2.10;;;;;;;20.15;46.48;101764.58;5227635;56;21230;-86
2021/09/06 10:10:55;;;;;;;6.87;2.45;;;;;;;20.27;49.16;101763.36;5228898;56;22128;-86
2021/09/06 10:16:03;;;;;;;5.15;2.02;;;;;;;20.44;48.19;101759.04;5207923;56;21097;-86
2021/09/06 10:21:16;;;;;;;4.78;2.15;;;;;;;20.50;46.54;101753.53;5203498;56;21183;-86
2021/09/06 10:26:24;;;;;;;4.55;2.50;;;;;;;20.61;46.33;101746.60;5206515;56;21187;-86
2021/09/06 10:31:31;;;;;;;5.40;2.10;;;;;;;20.75;47.50;101740.67;5201675;56;21191;-87
2021/09/06 10:36:38;;;;;;;2.70;2.25;;;;;;;20.95;46.67;101730.05;5203002;56;21127;-88
2021/09/06 10:41:47;;;;;;;7.92;3.08;;;;;;;21.05;47.56;101731.31;5203607;56;21188;-88
2021/09/06 10:47:11;;;;;;;4.15;1.95;;;;;;;21.16;46.64;101736.43;5203845;56;21133;-86
2021/09/06 10:52:17;;;;;;;3.47;2.85;;;;;;;21.23;44.24;101728.61;5197660;56;21193;-86
2021/09/06 10:57:23;;;;;;;2.75;2.52;;;;;;;21.29;44.88;101729.30;5198919;56;21164;-86
2021/09/06 11:02:30;;;;;;;2.40;2.20;;;;;;;21.32;44.81;101717.73;5198616;56;21147;-86
2021/09/06 11:07:36;;;;;;;7.08;2.30;;;;;;;21.34;43.63;101718.92;5201412;56;21164;-84
2021/09/06 11:12:58;;;;;;;25.52;2.80;;;;;;;21.33;43.59;101718.57;5205828;56;22008;-84
2021/09/06 11:18:10;;;;;;;5.70;2.02;;;;;;;21.52;43.45;101717.50;4957632;58;21174;-86
2021/09/06 11:23:15;;;;;;;3.47;2.08;;;;;;;21.58;43.39;101704.72;5047080;58;21097;-85
2021/09/06 11:28:21;;;;;;;4.30;2.00;;;;;;;21.70;42.33;101710.15;4987540;58;21175;-85
2021/09/06 11:33:28;;;;;;;4.03;2.75;;;;;;;21.76;41.30;101707.66;4988346;58;21215;-85
2021/09/06 11:38:34;;;;;;;5.35;2.55;;;;;;;21.78;42.75;101708.00;5046777;58;21128;-85
2021/09/06 11:43:42;;;;;;;2.00;1.57;;;;;;;21.75;42.81;101712.70;5016801;58;21236;-85
2021/09/06 11:48:51;;;;;;;8.03;2.12;;;;;;;21.68;42.80;101708.15;5038330;57;21247;-85
2021/09/06 11:54:02;;;;;;;2.58;2.17;;;;;;;21.76;43.13;101699.58;5037397;58;21756;-85
2021/09/06 11:59:11;;;;;;;2.55;2.08;;;;;;;21.90;43.67;101696.76;5037038;58;21895;-85
2021/09/06 12:04:16;;;;;;;5.33;2.67;;;;;;;22.02;43.10;101700.02;5037315;58;21190;-85
2021/09/06 12:09:22;;;;;;;5.33;2.72;;;;;;;22.26;43.68;101687.11;5046882;58;21767;-85
2021/09/06 12:14:28;;;;;;;3.92;1.82;;;;;;;22.45;42.94;101679.55;5019330;58;21207;-85
2021/09/06 12:19:40;;;;;;;4.35;2.42;;;;;;;22.59;41.98;101675.84;4987858;58;21942;-85
2021/09/06 12:24:47;;;;;;;3.75;2.90;;;;;;;22.58;41.54;101668.76;5040247;57;21624;-85
2021/09/06 12:30:00;;;;;;;3.75;2.90;;;;;;;22.58;39.86;101674.15;4961270;58;22326;-85
2021/09/06 12:35:05;;;;;;;;;;;;;;;22.52;42.16;101670.77;5049696;58;21607;-85
2021/09/06 12:40:12;;;;;;;2.22;2.00;;;;;;;22.57;41.43;101658.98;5042592;58;20202;-85
2021/09/06 12:45:19;;;;;;;9.55;2.80;;;;;;;22.62;42.30;101656.09;5040206;57;21101;-85
2021/09/06 12:50:25;;;;;;;4.10;2.37;;;;;;;22.87;42.53;101651.55;5044942;58;21156;-86
2021/09/06 12:55:32;;;;;;;6.65;2.85;;;;;;;23.11;41.83;101642.03;5040192;57;21179;-85
2021/09/06 13:00:38;;;;;;;3.47;3.05;;;;;;;23.22;40.86;101641.35;5044403;58;21559;-85
2021/09/06 13:05:44;;;;;;;3.58;2.75;;;;;;;23.22;39.90;101633.25;5047930;58;21191;-85
2021/09/06 13:10:51;;;;;;;4.45;2.62;;;;;;;23.21;41.30;101633.76;5043600;58;21758;-85
2021/09/06 13:15:57;;;;;;;3.52;2.67;;;;;;;23.22;39.88;101631.91;5047981;58;21573;-85
2021/09/06 13:21:04;;;;;;;5.08;3.30;;;;;;;23.20;40.93;101621.28;5048009;58;21662;-84
2021/09/06 13:26:17;;;;;;;7.42;3.47;;;;;;;23.19;40.48;101621.45;5050355;58;21183;-84
2021/09/06 13:31:23;;;;;;;5.97;3.05;;;;;;;23.16;40.93;101626.68;5047157;58;21191;-84
2021/09/06 13:36:29;;;;;;;5.08;2.83;;;;;;;23.19;40.94;101618.24;5046966;58;21207;-85
2021/09/06 13:41:35;;;;;;;5.40;3.58;;;;;;;23.29;40.69;101617.52;5048836;58;21502;-85
2021/09/06 13:46:41;;;;;;;4.08;2.83;;;;;;;23.33;40.39;101622.06;5048937;58;21626;-84
2021/09/06 13:51:47;;;;;;;5.58;3.20;;;;;;;23.27;41.15;101611.45;5046559;58;21200;-85
2021/09/06 13:56:53;;;;;;;10.50;4.10;;;;;;;23.31;40.20;101610.09;5043059;57;21164;-85
2021/09/06 14:01:59;;;;;;;5.78;3.60;;;;;;;23.28;40.31;101612.29;5049703;58;21202;-84
2021/09/06 14:07:05;;;;;;;4.70;3.42;;;;;;;23.32;40.46;101609.07;5040307;58;21082;-85
2021/09/06 14:12:14;;;;;;;6.40;3.80;;;;;;;23.33;40.48;101609.41;5040967;58;21593;-84
2021/09/06 14:17:19;;;;;;;5.28;4.15;;;;;;;23.43;40.41;101608.67;5041053;58;21153;-84
2021/09/06 14:22:25;;;;;;;8.48;3.67;;;;;;;23.46;40.23;101600.73;5041216;58;21542;-84
2021/09/06 14:27:31;;;;;;;7.03;3.77;;;;;;;23.47;40.27;101599.72;5050451;58;21678;-84
2021/09/06 14:32:37;;;;;;;5.08;3.27;;;;;;;23.37;39.99;101604.50;5047234;58;21106;-84
2021/09/06 14:37:43;;;;;;;4.70;3.42;;;;;;;23.38;40.76;101598.05;5032963;58;21226;-84
2021/09/06 14:42:49;;;;;;;4.70;3.37;;;;;;;23.35;40.75;101595.23;4962260;59;21160;-84
2021/09/06 14:47:55;;;;;;;5.42;3.90;;;;;;;23.44;41.14;101586.05;5043858;58;21171;-84
2021/09/06 14:53:01;;;;;;;5.72;3.85;;;;;;;23.48;40.58;101582.50;5041574;58;21511;-85
2021/09/06 14:58:07;;;;;;;6.42;3.75;;;;;;;23.45;40.18;101587.73;5041071;58;21677;-85
2021/09/06 15:16:53;;;;;;;6.97;4.10;;;;;;;23.40;41.63;101571.22;5557575;53;20995;-85
2021/09/06 15:21:58;;;;;;;7.65;3.45;;;;;;;23.28;40.68;101583.44;5425841;54;21376;-84
2021/09/06 15:27:07;;;;;;;8.40;3.90;;;;;;;23.21;40.64;101579.77;5425844;54;21169;-85
2021/09/06 15:32:13;;;;;;;7.58;4.75;;;;;;;23.20;40.84;101569.16;5425859;54;21674;-85
2021/09/06 15:52:48;;;;;;;6.97;3.77;;;;;;;22.73;42.46;101564.56;5409196;55;21448;-84
2021/09/06 15:57:53;;;;;;;5.50;3.77;;;;;;;22.52;42.53;101560.22;5294284;56;21181;-83
2021/09/06 16:02:59;;;;;;;8.45;3.75;;;;;;;22.38;42.88;101562.61;5294291;56;21129;-84
2021/09/06 16:08:05;;;;;;;6.33;3.10;;;;;;;22.26;43.13;101556.39;5294223;56;21174;-84
2021/09/06 16:13:11;;;;;;;17.00;11.83;;;;;;;22.10;43.29;101558.59;5267245;56;21532;-83
2021/09/06 16:18:17;;;;;;;6.15;4.95;;;;;;;21.96;44.08;101556.54;5205775;56;21147;-84
2021/09/06 16:23:23;;;;;;;11.20;5.10;;;;;;;21.88;44.49;101557.87;5205544;56;21758;-84
2021/09/06 16:28:29;;;;;;;34.50;23.67;;;;;;;21.79;44.79;101555.68;5206225;56;21636;-83
2021/09/06 16:33:35;;;;;;;26.05;17.32;;;;;;;21.70;45.13;101556.16;5204612;56;21250;-85
2021/09/06 16:38:40;;;;;;;8.73;5.87;;;;;;;21.60;45.72;101556.83;5203598;56;21222;-84
2021/09/06 16:43:46;;;;;;;10.70;6.25;;;;;;;21.52;46.18;101562.20;5202059;56;21170;-83
2021/09/06 16:48:52;;;;;;;11.85;4.10;;;;;;;21.43;46.38;101563.17;5255102;56;21176;-85
2021/09/06 16:53:58;;;;;;;7.03;4.22;;;;;;;21.33;46.80;101559.30;5270816;56;21212;-82
2021/09/06 16:59:03;;;;;;;11.43;3.85;;;;;;;21.19;46.91;101556.36;5272103;55;22420;-83
2021/09/06 17:04:10;;;;;;;10.50;4.80;;;;;;;21.01;47.25;101551.06;5269470;56;21247;-85
2021/09/06 17:09:16;;;;;;;7.70;4.90;;;;;;;20.85;47.67;101548.30;5269599;56;21129;-83
2021/09/06 17:14:22;;;;;;;9.90;4.58;;;;;;;20.64;48.01;101541.96;5269812;56;21666;-84
2021/09/06 17:19:28;;;;;;;11.05;5.45;;;;;;;20.48;48.32;101537.83;5269715;56;21137;-85
2021/09/06 17:24:34;;;;;;;20.43;6.55;;;;;;;20.41;48.75;101548.39;5269725;56;21165;-86
2021/09/06 17:29:40;;;;;;;32.53;6.65;;;;;;;20.36;49.36;101545.32;5269774;56;22018;-82
2021/09/06 17:34:49;;;;;;;52.50;6.20;;;;;;;20.33;49.99;101549.63;5269616;56;21133;-84
2021/09/06 17:39:53;;;;;;;101.45;8.70;;;;;;;20.11;50.25;101553.68;5269432;56;21165;-84
2021/09/06 17:44:59;;;;;;;38.65;4.58;;;;;;;20.03;50.96;101556.28;5201772;56;21304;-83
2021/09/06 17:50:06;;;;;;;13.55;4.53;;;;;;;19.92;52.33;101553.34;5265977;55;21560;-83
2021/09/06 17:55:12;;;;;;;20.02;9.68;;;;;;;19.87;53.37;101546.73;5271563;56;21619;-83
2021/09/06 18:00:18;;;;;;;18.75;8.15;;;;;;;19.78;53.74;101547.68;5271219;56;21597;-83
2021/09/06 18:05:24;;;;;;;18.45;9.55;;;;;;;19.70;54.14;101543.09;5268639;56;21732;-85
2021/09/06 18:10:30;;;;;;;23.87;7.87;;;;;;;19.65;54.26;101550.25;5267981;56;21303;-82
2021/09/06 18:15:36;;;;;;;48.78;16.02;;;;;;;19.56;54.74;101555.67;5268311;56;21195;-85
2021/09/06 18:20:44;;;;;;;50.20;25.27;;;;;;;19.45;55.39;101551.34;5268138;56;21165;-85
2021/09/06 18:25:50;;;;;;;75.67;36.88;;;;;;;19.39;56.05;101541.73;5269197;56;21137;-83
2021/09/06 18:30:56;;;;;;;55.10;23.62;;;;;;;19.23;56.58;101537.03;5271290;56;21167;-88
2021/09/06 18:36:02;;;;;;;24.65;13.60;;;;;;;19.12;56.53;101546.09;5271364;56;21560;-89
2021/09/06 18:41:09;;;;;;;25.57;11.20;;;;;;;19.10;56.34;101537.85;5271140;56;21216;-89
2021/09/06 18:46:15;;;;;;;26.25;10.93;;;;;;;19.05;56.28;101539.66;5271487;56;21146;-86
2021/09/06 18:51:21;;;;;;;14.58;9.30;;;;;;;19.05;56.52;101532.11;5271331;55;21602;-85
2021/09/06 18:56:27;;;;;;;17.27;7.70;;;;;;;19.00;56.44;101542.43;5271338;56;21082;-84
2021/09/06 19:01:33;;;;;;;5.92;3.40;;;;;;;18.92;56.52;101540.02;5271491;56;21568;-84
2021/09/06 19:06:41;;;;;;;8.18;3.85;;;;;;;18.72;57.27;101548.27;5271816;56;21139;-87
2021/09/06 19:11:47;;;;;;;12.60;4.80;;;;;;;18.43;57.49;101551.85;5271439;56;21202;-85
2021/09/06 19:16:53;;;;;;;5.22;4.03;;;;;;;18.31;57.69;101551.67;5271364;56;21142;-86
2021/09/06 19:22:01;;;;;;;9.25;4.85;;;;;;;18.23;57.80;101554.20;5250985;56;21089;-89
2021/09/06 19:27:09;;;;;;;11.90;5.22;;;;;;;18.03;57.65;101557.39;5261631;56;21150;-89
2021/09/06 19:32:15;;;;;;;8.10;4.90;;;;;;;18.01;58.10;101563.90;5240413;56;21577;-89
2021/09/06 19:37:22;;;;;;;9.00;5.63;;;;;;;18.02;58.18;101553.55;5032624;58;21466;-88
2021/09/06 19:42:30;;;;;;;8.77;6.17;;;;;;;18.04;58.41;101562.25;5045928;58;21155;-88
2021/09/06 19:47:35;;;;;;;19.97;7.10;;;;;;;18.00;58.40;101560.38;5045565;58;21575;-88
2021/09/06 19:52:41;;;;;;;13.73;8.13;;;;;;;17.98;58.37;101546.28;5080046;57;21113;-88
2021/09/06 19:57:46;;;;;;;9.80;6.97;;;;;;;18.00;58.34;101546.99;5142249;57;21596;-87
2021/09/06 20:02:52;;;;;;;10.97;6.87;;;;;;;18.04;58.29;101552.88;5140281;57;21227;-85
2021/09/06 20:07:58;;;;;;;11.80;5.97;;;;;;;18.01;58.17;101557.20;5148104;57;21122;-86
2021/09/06 20:13:05;;;;;;;16.90;8.67;;;;;;;17.95;58.12;101556.42;5145259;57;21164;-85
2021/09/06 20:18:14;;;;;;;31.17;10.73;;;;;;;17.85;58.11;101561.30;5130210;57;21224;-85
2021/09/06 20:23:20;;;;;;;26.13;11.97;;;;;;;17.82;58.14;101565.58;5145280;57;21096;-87
2021/09/06 20:28:26;;;;;;;17.33;9.60;;;;;;;17.80;58.19;101565.36;5218222;56;21153;-87
2021/09/06 20:33:31;;;;;;;14.17;7.83;;;;;;;17.80;58.40;101564.88;5149509;57;21151;-86
2021/09/06 20:38:37;;;;;;;11.67;7.23;;;;;;;17.78;58.41;101557.48;5209686;57;21163;-87
2021/09/06 20:43:43;;;;;;;16.47;6.80;;;;;;;17.76;58.41;101557.26;5158930;57;22181;-87
2021/09/06 20:48:49;;;;;;;11.37;6.60;;;;;;;17.74;58.45;101557.39;5170208;57;21724;-87
2021/09/06 20:53:55;;;;;;;11.35;6.50;;;;;;;17.67;58.35;101558.11;5112743;57;21228;-86
2021/09/06 20:59:01;;;;;;;18.77;6.50;;;;;;;17.57;58.45;101556.71;5170662;57;21163;-87
2021/09/06 21:04:08;;;;;;;20.60;6.33;;;;;;;17.52;58.62;101553.62;5112878;58;21178;-86
2021/09/06 21:09:14;;;;;;;14.70;6.77;;;;;;;17.43;58.63;101548.59;5170224;57;21219;-87
2021/09/06 21:14:20;;;;;;;13.37;6.60;;;;;;;17.39;58.84;101553.05;5112470;58;21168;-86
2021/09/06 21:19:25;;;;;;;17.60;6.40;;;;;;;17.32;58.88;101555.90;5170328;57;21190;-86
2021/09/06 21:24:31;;;;;;;8.57;6.00;;;;;;;17.28;58.84;101566.50;5112660;58;21222;-87
2021/09/06 21:29:37;;;;;;;10.67;6.83;;;;;;;17.20;58.99;101561.38;5170742;57;21172;-86
2021/09/06 21:34:43;;;;;;;19.17;6.40;;;;;;;17.16;59.03;101560.43;5113172;58;21203;-87
2021/09/06 21:39:49;;;;;;;15.87;6.40;;;;;;;17.15;59.10;101550.72;5170458;57;21221;-86
2021/09/06 21:44:56;;;;;;;10.67;6.00;;;;;;;17.10;59.25;101561.00;5177092;57;21124;-86
2021/09/06 21:50:02;;;;;;;14.27;6.20;;;;;;;17.00;59.24;101555.59;5200281;57;22592;-86
2021/09/06 21:55:07;;;;;;;9.87;6.73;;;;;;;16.92;59.39;101552.77;5200347;56;21547;-87
2021/09/06 22:00:16;;;;;;;15.30;7.80;;;;;;;16.82;59.55;101551.86;5199781;57;21614;-87
2021/09/06 22:05:22;;;;;;;12.20;6.03;;;;;;;16.75;59.81;101549.38;5200016;56;21128;-87
2021/09/06 22:10:27;;;;;;;12.40;6.40;;;;;;;16.67;59.88;101548.70;5199980;57;21250;-86
2021/09/06 22:15:33;;;;;;;13.83;6.33;;;;;;;16.61;60.17;101549.70;5199804;57;21184;-85
2021/09/06 22:20:39;;;;;;;12.70;7.07;;;;;;;16.52;60.38;101541.98;5199640;57;21199;-86
2021/09/06 22:25:45;;;;;;;11.70;6.17;;;;;;;16.43;60.49;101538.30;5199940;57;21240;-86
2021/09/06 22:30:51;;;;;;;10.87;6.67;;;;;;;16.39;60.53;101546.20;5199906;57;21191;-86
2021/09/06 22:35:59;;;;;;;11.63;6.67;;;;;;;16.37;60.76;101547.30;5199908;57;21129;-87
2021/09/06 22:41:05;;;;;;;12.53;6.07;;;;;;;16.34;60.74;101551.59;5200079;57;21215;-86
2021/09/06 22:46:10;;;;;;;12.90;5.97;;;;;;;16.32;60.82;101550.88;5102818;58;21802;-86
2021/09/06 22:51:16;;;;;;;12.63;6.83;;;;;;;16.33;60.86;101558.77;5076943;58;21324;-86
2021/09/06 22:56:22;;;;;;;12.83;7.40;;;;;;;16.33;60.99;101557.42;5064659;58;21613;-86
2021/09/06 23:01:28;;;;;;;10.00;6.43;;;;;;;16.32;60.97;101553.06;5179684;57;21436;-87
2021/09/06 23:06:36;;;;;;;16.17;6.53;;;;;;;16.31;61.02;101550.03;5180111;57;21187;-86
2021/09/06 23:11:42;;;;;;;11.20;6.37;;;;;;;16.35;61.15;101545.25;5179853;57;21485;-86
2021/09/06 23:16:49;;;;;;;11.83;6.07;;;;;;;16.33;61.21;101533.40;5179652;57;21172;-87
2021/09/06 23:21:56;;;;;;;17.27;7.33;;;;;;;16.31;61.16;101533.16;5179262;57;21120;-86
2021/09/06 23:27:02;;;;;;;14.57;5.97;;;;;;;16.26;61.20;101516.69;5179328;57;21199;-86
2021/09/06 23:32:11;;;;;;;8.23;5.47;;;;;;;16.18;61.41;101520.03;5179207;57;21199;-87
2021/09/06 23:37:17;;;;;;;9.30;5.27;;;;;;;16.02;61.92;101509.81;5179462;56;22446;-86
2021/09/06 23:42:22;;;;;;;10.53;5.63;;;;;;;15.82;62.37;101511.97;5201513;56;21168;-86
2021/09/06 23:47:28;;;;;;;13.50;6.00;;;;;;;15.67;62.83;101519.91;5266370;56;21433;-86
2021/09/06 23:52:34;;;;;;;11.50;6.10;;;;;;;15.62;63.48;101515.44;5266441;56;21160;-86
2021/09/06 23:57:40;;;;;;;10.47;5.77;;;;;;;15.64;63.54;101514.83;5268240;55;21610;-86
